createdAt,value
2023-04-11T00:00:16.530Z,100787.19
2023-04-11T00:02:45.042Z,100792.34
2023-04-11T00:05:12.533Z,100797.44
2023-04-11T00:07:39.912Z,100802.69
2023-04-11T00:10:08.201Z,100793.16
2023-04-11T00:12:35.687Z,100792.34
2023-04-11T00:15:03.748Z,100802.72
2023-04-11T00:17:31.677Z,100806.16
2023-04-11T00:20:01.810Z,100793.22
2023-04-11T00:22:30.681Z,100794.03
2023-04-11T00:24:58.127Z,100790.56
2023-04-11T00:27:25.628Z,100783.66
2023-04-11T00:29:54.782Z,100790.56
2023-04-11T00:32:22.203Z,100796.63
2023-04-11T00:34:49.619Z,100791.50
2023-04-11T00:37:17.748Z,100792.38
2023-04-11T00:39:45.644Z,100797.53
2023-04-11T00:42:12.990Z,100805.34
2023-04-11T00:44:40.441Z,100800.97
2023-04-11T00:47:08.248Z,100806.13
2023-04-11T00:49:36.631Z,100796.66
2023-04-11T00:52:04.676Z,100809.63
2023-04-11T00:54:32.265Z,100801.84
2023-04-11T00:57:03.798Z,100807.88
2023-04-11T00:59:32.180Z,100820.06
2023-04-11T01:02:00.172Z,100814.06
2023-04-11T01:04:29.377Z,100808.00
2023-04-11T01:06:59.826Z,100816.69
2023-04-11T01:09:28.270Z,100809.69
2023-04-11T01:11:56.342Z,100803.56
2023-04-11T01:14:25.411Z,100807.94
2023-04-11T01:16:53.162Z,100808.75
2023-04-11T01:19:21.119Z,100804.38
2023-04-11T01:21:52.817Z,100808.75
2023-04-11T01:24:20.491Z,100783.66
2023-04-11T01:26:47.894Z,100806.09
2023-04-11T01:29:15.319Z,100800.88
2023-04-11T01:31:42.821Z,100805.22
2023-04-11T01:34:12.830Z,100800.94
2023-04-11T01:36:40.927Z,100809.59
2023-04-11T01:39:08.519Z,100813.00
2023-04-11T01:41:36.634Z,100812.13
2023-04-11T01:44:05.003Z,100805.97
2023-04-11T01:46:32.767Z,100814.66
2023-04-11T01:49:00.995Z,100818.13
2023-04-11T01:51:28.445Z,100819.06
2023-04-11T01:53:55.875Z,100825.09
2023-04-11T01:56:23.387Z,100818.13
2023-04-11T01:58:50.926Z,100823.31
2023-04-11T02:01:19.281Z,100828.53
2023-04-11T02:03:47.155Z,100831.94
2023-04-11T02:06:16.703Z,100822.50
2023-04-11T02:08:44.563Z,100832.03
2023-04-11T02:11:12.329Z,100839.88
2023-04-11T02:13:39.727Z,100841.59
2023-04-11T02:16:15.338Z,100845.06
2023-04-11T02:18:43.890Z,100849.28
2023-04-11T02:21:11.623Z,100847.59
2023-04-11T02:23:39.076Z,100861.53
2023-04-11T02:26:06.468Z,100857.13
2023-04-11T02:28:34.109Z,100853.69
2023-04-11T02:31:03.413Z,100856.28
2023-04-11T02:33:30.903Z,100860.63
2023-04-11T02:35:58.307Z,100852.00
2023-04-11T02:38:25.839Z,100850.28
2023-04-11T02:40:53.300Z,100850.34
2023-04-11T02:43:20.782Z,100855.53
2023-04-11T02:45:48.400Z,100854.66
2023-04-11T02:48:16.279Z,100855.56
2023-04-11T02:50:43.740Z,100843.38
2023-04-11T02:53:11.321Z,100852.97
2023-04-11T02:55:38.707Z,100864.16
2023-04-11T02:58:06.178Z,100861.50
2023-04-11T03:00:33.619Z,100866.84
2023-04-11T03:03:02.582Z,100860.75
2023-04-11T03:05:30.378Z,100865.00
2023-04-11T03:07:58.914Z,100866.78
2023-04-11T03:10:26.299Z,100867.63
2023-04-11T03:12:53.715Z,100875.47
2023-04-11T03:15:21.185Z,100863.41
2023-04-11T03:17:48.797Z,100870.28
2023-04-11T03:20:19.529Z,100878.06
2023-04-11T03:22:47.247Z,100863.34
2023-04-11T03:25:14.677Z,100884.16
2023-04-11T03:27:42.228Z,100875.53
2023-04-11T03:30:09.837Z,100875.53
2023-04-11T03:32:37.271Z,100884.22
2023-04-11T03:35:04.747Z,100883.41
2023-04-11T03:37:32.136Z,100885.13
2023-04-11T03:39:59.506Z,100886.84
2023-04-11T03:42:26.953Z,100894.69
2023-04-11T03:44:54.383Z,100887.75
2023-04-11T03:47:21.807Z,100894.69
2023-04-11T03:49:49.286Z,100893.81
2023-04-11T03:52:17.548Z,100904.22
2023-04-11T03:54:47.080Z,100908.56
2023-04-11T03:57:15.505Z,100911.16
2023-04-11T03:59:42.853Z,100927.59
2023-04-11T04:02:10.363Z,100918.09
2023-04-11T04:04:38.968Z,100929.31
2023-04-11T04:07:06.771Z,100921.56
2023-04-11T04:09:34.259Z,100925.03
2023-04-11T04:12:01.754Z,100920.69
2023-04-11T04:14:29.161Z,100936.28
2023-04-11T04:16:56.588Z,100931.97
2023-04-11T04:19:24.055Z,100938.03
2023-04-11T04:21:51.472Z,100935.41
2023-04-11T04:24:18.855Z,100948.41
2023-04-11T04:26:49.970Z,100950.13
2023-04-11T04:29:18.209Z,100950.13
2023-04-11T04:31:52.979Z,100947.53
2023-04-11T04:34:21.753Z,100970.91
2023-04-11T04:36:49.395Z,100967.41
2023-04-11T04:39:18.432Z,100964.84
2023-04-11T04:41:48.754Z,100965.69
2023-04-11T04:44:17.393Z,100974.38
2023-04-11T04:46:44.892Z,100976.06
2023-04-11T04:49:12.396Z,100967.41
2023-04-11T04:51:40.577Z,100974.34
2023-04-11T04:54:07.985Z,100985.59
2023-04-11T04:56:35.611Z,100989.03
2023-04-11T04:59:02.974Z,100991.63
2023-04-11T05:01:33.056Z,100995.03
2023-04-11T05:04:02.075Z,100997.69
2023-04-11T05:06:31.511Z,100995.94
2023-04-11T05:09:00.050Z,100995.06
2023-04-11T05:11:28.294Z,100993.34
2023-04-11T05:13:56.019Z,101007.19
2023-04-11T05:16:23.677Z,101013.25
2023-04-11T05:18:51.116Z,101011.50
2023-04-11T05:21:18.612Z,101015.81
2023-04-11T05:23:46.014Z,101017.50
2023-04-11T05:26:13.427Z,101017.56
2023-04-11T05:28:41.521Z,101026.22
2023-04-11T05:31:09.921Z,101019.31
2023-04-11T05:33:38.433Z,101023.63
2023-04-11T05:36:06.839Z,101027.13
2023-04-11T05:38:34.332Z,101026.25
2023-04-11T05:41:01.957Z,101029.72
2023-04-11T05:43:29.571Z,101040.97
2023-04-11T05:45:58.017Z,101036.66
2023-04-11T05:48:25.403Z,101038.41
2023-04-11T05:50:53.196Z,101054.00
2023-04-11T05:53:21.141Z,101054.00
2023-04-11T05:55:48.623Z,101054.00
2023-04-11T05:58:16.130Z,101059.22
2023-04-11T06:00:43.635Z,101063.56
2023-04-11T06:03:11.334Z,101066.13
2023-04-11T06:05:39.287Z,101061.84
2023-04-11T06:08:08.085Z,101076.56
2023-04-11T06:10:35.784Z,101059.22
2023-04-11T06:13:03.240Z,101071.34
2023-04-11T06:15:30.746Z,101071.38
2023-04-11T06:17:58.205Z,101075.72
2023-04-11T06:20:25.828Z,101069.63
2023-04-11T06:22:53.239Z,101080.03
2023-04-11T06:25:21.805Z,101083.47
2023-04-11T06:27:49.441Z,101080.03
2023-04-11T06:30:16.881Z,101082.59
2023-04-11T06:32:44.429Z,101090.41
2023-04-11T06:35:11.913Z,101093.84
2023-04-11T06:37:39.409Z,101086.06
2023-04-11T06:40:07.210Z,101097.31
2023-04-11T06:42:34.750Z,101090.38
2023-04-11T06:45:02.227Z,101104.25
2023-04-11T06:47:29.699Z,101099.03
2023-04-11T06:49:57.313Z,101095.56
2023-04-11T06:52:26.450Z,101100.72
2023-04-11T06:54:54.988Z,101091.19
2023-04-11T06:57:22.969Z,101111.97
2023-04-11T06:59:50.552Z,101107.69
2023-04-11T07:02:18.228Z,101112.91
2023-04-11T07:04:45.770Z,101111.13
2023-04-11T07:07:13.186Z,101112.03
2023-04-11T07:09:40.947Z,101118.13
2023-04-11T07:12:08.360Z,101111.09
2023-04-11T07:14:35.937Z,101116.34
2023-04-11T07:17:03.367Z,101125.72
2023-04-11T07:19:30.824Z,101121.41
2023-04-11T07:21:58.451Z,101117.91
2023-04-11T07:24:26.044Z,101126.63
2023-04-11T07:26:54.378Z,101135.25
2023-04-11T07:29:21.837Z,101133.50
2023-04-11T07:31:49.756Z,101137.84
2023-04-11T07:34:17.226Z,101136.00
2023-04-11T07:36:44.714Z,101150.81
2023-04-11T07:39:14.044Z,101139.31
2023-04-11T07:41:41.548Z,101144.59
2023-04-11T07:44:09.656Z,101150.72
2023-04-11T07:46:37.183Z,101149.09
2023-04-11T07:49:04.678Z,101152.66
2023-04-11T07:51:33.129Z,101152.69
2023-04-11T07:54:00.584Z,101150.88
2023-04-11T07:56:28.154Z,101155.88
2023-04-11T07:58:57.091Z,101153.25
2023-04-11T08:01:25.530Z,101163.69
2023-04-11T08:03:54.854Z,101146.25
2023-04-11T08:06:22.710Z,101158.88
2023-04-11T08:08:50.408Z,101167.53
2023-04-11T08:11:17.920Z,101164.25
2023-04-11T08:13:45.409Z,101175.72
2023-04-11T08:16:14.904Z,101170.41
2023-04-11T08:18:43.028Z,101185.34
2023-04-11T08:21:11.983Z,101178.34
2023-04-11T08:23:42.425Z,101177.41
2023-04-11T08:26:11.943Z,101180.06
2023-04-11T08:28:41.873Z,101176.53
2023-04-11T08:31:10.777Z,101206.63
2023-04-11T08:33:40.163Z,101195.31
2023-04-11T08:36:10.129Z,101192.94
2023-04-11T08:38:38.645Z,101194.00
2023-04-11T08:41:06.325Z,101198.53
2023-04-11T08:43:40.929Z,101214.84
2023-04-11T08:46:08.912Z,101214.50
2023-04-11T08:48:36.507Z,101209.81
2023-04-11T08:51:03.992Z,101205.06
2023-04-11T08:53:32.067Z,101211.72
2023-04-11T08:55:59.941Z,101199.22
2023-04-11T08:58:27.479Z,101214.06
2023-04-11T09:00:55.021Z,101223.31
2023-04-11T09:03:22.580Z,101224.34
2023-04-11T09:05:50.124Z,101210.94
2023-04-11T09:08:18.119Z,101217.81
2023-04-11T09:10:46.331Z,101214.25
2023-04-11T09:13:27.003Z,101222.13
2023-04-11T09:16:06.705Z,101216.63
2023-04-11T09:18:34.986Z,101193.88
2023-04-11T09:21:05.167Z,101199.59
2023-04-11T09:23:32.639Z,101217.13
2023-04-11T09:26:00.057Z,101217.97
2023-04-11T09:28:27.588Z,101233.13
2023-04-11T09:30:59.042Z,101226.34
2023-04-11T09:33:28.329Z,101229.03
2023-04-11T09:35:56.980Z,101237.56
2023-04-11T09:38:35.576Z,101215.03
2023-04-11T09:41:03.564Z,101209.81
2023-04-11T09:43:51.477Z,101239.69
2023-04-11T09:46:20.907Z,101229.69
2023-04-11T09:48:49.518Z,101238.78
2023-04-11T09:53:40.406Z,101242.59
2023-04-11T09:54:06.059Z,101242.19
2023-04-11T09:56:35.217Z,101235.22
2023-04-11T09:59:03.646Z,101237.22
2023-04-11T10:01:31.039Z,101245.72
2023-04-11T10:03:58.811Z,101248.06
2023-04-11T10:06:34.788Z,101235.34
2023-04-11T10:09:10.938Z,101241.00
2023-04-11T10:11:41.256Z,101237.41
2023-04-11T10:14:08.665Z,101246.84
2023-04-11T10:16:36.169Z,101239.59
2023-04-11T10:19:04.407Z,101246.78
2023-04-11T10:21:32.673Z,101202.56
2023-04-11T10:24:17.465Z,101253.56
2023-04-11T10:26:57.596Z,101248.16
2023-04-11T10:29:33.174Z,101253.66
2023-04-11T10:32:13.286Z,101244.53
2023-04-11T10:34:41.986Z,101249.25
2023-04-11T10:37:10.803Z,101247.28
2023-04-11T10:40:10.014Z,101255.88
2023-04-11T10:42:42.099Z,101247.56
2023-04-11T10:45:39.880Z,101251.84
2023-04-11T10:48:10.394Z,101259.19
2023-04-11T10:50:40.845Z,101260.56
2023-04-11T10:53:09.867Z,101233.88
2023-04-11T10:55:50.180Z,101242.56
2023-04-11T10:58:19.812Z,101248.63
2023-04-11T11:00:50.687Z,101225.53
2023-04-11T11:03:19.400Z,101254.19
2023-04-11T11:05:47.177Z,101248.47
2023-04-11T11:08:14.821Z,101263.41
2023-04-11T11:10:46.419Z,101264.31
2023-04-11T11:13:16.178Z,101264.81
2023-04-11T11:15:50.449Z,101258.25
2023-04-11T11:18:19.097Z,101274.88
2023-04-11T11:20:46.541Z,101264.03
2023-04-11T11:23:14.032Z,101270.69
2023-04-11T11:25:41.936Z,101266.84
2023-04-11T11:28:09.968Z,101265.84
2023-04-11T11:30:38.046Z,101268.63
2023-04-11T11:33:15.852Z,101269.06
2023-04-11T11:35:44.498Z,101272.63
2023-04-11T11:38:12.049Z,101268.56
2023-04-11T11:40:39.584Z,101284.75
2023-04-11T11:43:08.229Z,101281.56
2023-04-11T11:45:35.810Z,101274.41
2023-04-11T11:48:03.333Z,101275.94
2023-04-11T11:50:32.009Z,101278.53
2023-04-11T11:53:12.796Z,101275.53
2023-04-11T11:55:40.381Z,101275.03
2023-04-11T11:58:07.956Z,101290.25
2023-04-11T12:00:40.283Z,101273.16
2023-04-11T12:03:09.957Z,101283.25
2023-04-11T12:05:37.923Z,101287.53
2023-04-11T12:08:07.781Z,101287.13
2023-04-11T12:10:44.476Z,101299.63
2023-04-11T12:13:32.138Z,101293.63
2023-04-11T12:16:02.414Z,101292.63
2023-04-11T12:18:29.825Z,101287.22
2023-04-11T12:20:58.519Z,101284.59
2023-04-11T12:23:26.415Z,101291.50
2023-04-11T12:25:53.925Z,101285.53
2023-04-11T12:28:21.556Z,101285.66
2023-04-11T12:30:49.010Z,101296.38
2023-04-11T12:33:17.214Z,101300.38
2023-04-11T12:35:44.656Z,101291.47
2023-04-11T12:38:14.877Z,101293.09
2023-04-11T12:40:45.061Z,101289.16
2023-04-11T12:43:12.537Z,101301.03
2023-04-11T12:45:39.953Z,101287.53
2023-04-11T12:48:07.518Z,101284.56
2023-04-11T12:50:35.213Z,101299.94
2023-04-11T12:53:02.725Z,101286.56
2023-04-11T12:55:30.311Z,101283.22
2023-04-11T12:57:57.738Z,101285.91
2023-04-11T13:00:25.363Z,101288.19
2023-04-11T13:02:53.504Z,101279.00
2023-04-11T13:05:22.530Z,101285.19
2023-04-11T13:07:50.176Z,101290.63
2023-04-11T13:10:17.776Z,101291.44
2023-04-11T13:12:46.035Z,101302.91
2023-04-11T13:15:14.256Z,101279.94
2023-04-11T13:17:41.871Z,101295.69
2023-04-11T13:20:10.864Z,101274.03
2023-04-11T13:22:38.836Z,101308.66
2023-04-11T13:25:06.840Z,101302.19
2023-04-11T13:27:34.320Z,101288.34
2023-04-11T13:30:02.034Z,101295.75
2023-04-11T13:32:29.516Z,101311.56
2023-04-11T13:34:56.966Z,101289.53
2023-04-11T13:37:24.404Z,101293.34
2023-04-11T13:39:52.114Z,101285.41
2023-04-11T13:42:21.823Z,101295.09
2023-04-11T13:44:49.320Z,101288.41
2023-04-11T13:47:16.806Z,101299.06
2023-04-11T13:49:44.482Z,101283.97
2023-04-11T13:52:11.891Z,101277.97
2023-04-11T13:54:39.314Z,101278.44
2023-04-11T13:57:09.529Z,101274.94
2023-04-11T13:59:37.289Z,101281.75
2023-04-11T14:02:04.880Z,101280.66
2023-04-11T14:04:32.438Z,101264.50
2023-04-11T14:07:00.071Z,101268.75
2023-04-11T14:09:27.509Z,101267.97
2023-04-11T14:11:55.148Z,101270.50
2023-04-11T14:14:22.826Z,101275.34
2023-04-11T14:16:50.390Z,101278.94
2023-04-11T14:19:17.834Z,101269.03
2023-04-11T14:21:45.667Z,101254.44
2023-04-11T14:24:13.142Z,101270.53
2023-04-11T14:26:40.632Z,101259.25
2023-04-11T14:29:08.295Z,101255.50
2023-04-11T14:31:36.389Z,101255.66
2023-04-11T14:34:03.977Z,101254.91
2023-04-11T14:36:32.032Z,101238.53
2023-04-11T14:38:59.568Z,101243.00
2023-04-11T14:41:26.973Z,101240.69
2023-04-11T14:43:54.652Z,101241.38
2023-04-11T14:46:22.345Z,101232.66
2023-04-11T14:48:49.790Z,101243.75
2023-04-11T14:51:17.206Z,101240.53
2023-04-11T14:53:44.687Z,101241.47
2023-04-11T14:56:12.187Z,101240.84
2023-04-11T14:58:39.848Z,101236.38
2023-04-11T15:01:07.951Z,101228.56
2023-04-11T15:03:35.549Z,101220.94
2023-04-11T15:06:03.606Z,101223.00
2023-04-11T15:08:31.313Z,101210.91
2023-04-11T15:10:58.778Z,101216.63
2023-04-11T15:13:27.020Z,101215.75
2023-04-11T15:15:54.478Z,101214.16
2023-04-11T15:18:23.302Z,101205.94
2023-04-11T15:20:50.873Z,101200.31
2023-04-11T15:23:19.113Z,101186.50
2023-04-11T15:25:56.753Z,101202.31
2023-04-11T15:28:24.989Z,101208.78
2023-04-11T15:30:53.235Z,101197.84
2023-04-11T15:33:22.015Z,101199.50
2023-04-11T15:35:49.473Z,101192.63
2023-04-11T15:38:18.401Z,101192.66
2023-04-11T15:40:46.412Z,101188.50
2023-04-11T15:43:13.864Z,101197.94
2023-04-11T15:45:44.060Z,101182.84
2023-04-11T15:48:12.849Z,101170.97
2023-04-11T15:50:40.868Z,101185.34
2023-04-11T15:53:08.571Z,101194.72
2023-04-11T15:55:39.172Z,101185.28
2023-04-11T15:58:06.661Z,101180.06
2023-04-11T16:00:36.328Z,101174.72
2023-04-11T16:03:04.873Z,101176.44
2023-04-11T16:05:36.734Z,101173.38
2023-04-11T16:08:04.693Z,101182.00
2023-04-11T16:10:32.801Z,101169.75
2023-04-11T16:13:00.441Z,101164.56
2023-04-11T16:15:27.784Z,101166.47
2023-04-11T16:17:55.408Z,101157.38
2023-04-11T16:20:22.838Z,101146.28
2023-04-11T16:22:50.303Z,101149.09
2023-04-11T16:25:20.917Z,101142.50
2023-04-11T16:27:49.046Z,101141.03
2023-04-11T16:30:16.900Z,101130.69
2023-04-11T16:32:44.757Z,101158.28
2023-04-11T16:35:12.325Z,101142.91
2023-04-11T16:37:39.837Z,101144.34
2023-04-11T16:40:11.257Z,101154.94
2023-04-11T16:42:39.283Z,101145.94
2023-04-11T16:45:07.659Z,101143.34
2023-04-11T16:47:35.134Z,101136.63
2023-04-11T16:50:02.718Z,101137.47
2023-04-11T16:52:30.431Z,101137.69
2023-04-11T16:54:57.896Z,101125.16
2023-04-11T16:57:25.709Z,101124.53
2023-04-11T16:59:53.153Z,101114.75
2023-04-11T17:02:20.683Z,101104.81
2023-04-11T17:04:48.232Z,101116.66
2023-04-11T17:07:16.204Z,101111.66
2023-04-11T17:09:43.855Z,101111.72
2023-04-11T17:12:11.398Z,101102.22
2023-04-11T17:14:38.854Z,101105.69
2023-04-11T17:17:06.295Z,101092.97
2023-04-11T17:19:33.838Z,101092.94
2023-04-11T17:22:01.705Z,101098.25
2023-04-11T17:24:29.078Z,101089.53
2023-04-11T17:26:57.004Z,101088.78
2023-04-11T17:29:24.700Z,101080.41
2023-04-11T17:31:52.357Z,101075.31
2023-04-11T17:34:19.737Z,101075.06
2023-04-11T17:36:47.925Z,101068.91
2023-04-11T17:39:17.880Z,101056.75
2023-04-11T17:41:45.977Z,101049.78
2023-04-11T17:44:13.798Z,101053.47
2023-04-11T17:46:41.480Z,101045.91
2023-04-11T17:49:09.031Z,101040.81
2023-04-11T17:51:38.897Z,101047.59
2023-04-11T17:54:10.391Z,101031.34
2023-04-11T17:56:37.843Z,101033.81
2023-04-11T17:59:05.325Z,101025.00
2023-04-11T18:01:32.995Z,101028.72
2023-04-11T18:04:01.799Z,101027.16
2023-04-11T18:06:29.846Z,101028.81
2023-04-11T18:08:57.349Z,101030.63
2023-04-11T18:11:24.880Z,101030.53
2023-04-11T18:13:52.368Z,101030.63
2023-04-11T18:16:19.857Z,101023.47
2023-04-11T18:18:48.122Z,101030.53
2023-04-11T18:21:16.522Z,101015.06
2023-04-11T18:23:44.070Z,101018.44
2023-04-11T18:26:11.484Z,101018.59
2023-04-11T18:28:38.887Z,101011.59
2023-04-11T18:31:06.833Z,101010.75
2023-04-11T18:33:37.490Z,101009.78
2023-04-11T18:36:07.069Z,101006.47
2023-04-11T18:38:34.540Z,100997.78
2023-04-11T18:41:06.776Z,100995.31
2023-04-11T18:43:35.078Z,101003.09
2023-04-11T18:46:02.706Z,100995.28
2023-04-11T18:48:31.639Z,101001.47
2023-04-11T18:50:59.845Z,100994.44
2023-04-11T18:53:29.894Z,101002.38
2023-04-11T18:55:57.881Z,100995.47
2023-04-11T18:58:27.007Z,100993.69
2023-04-11T19:00:55.469Z,100995.50
2023-04-11T19:03:24.192Z,100988.53
2023-04-11T19:05:52.756Z,100985.97
2023-04-11T19:08:20.409Z,100978.19
2023-04-11T19:10:47.800Z,100974.69
2023-04-11T19:13:15.471Z,100962.56
2023-04-11T19:15:42.871Z,100973.84
2023-04-11T19:18:11.239Z,100970.31
2023-04-11T19:20:39.136Z,100973.81
2023-04-11T19:23:06.700Z,100972.16
2023-04-11T19:25:34.731Z,100965.34
2023-04-11T19:28:02.131Z,100956.78
2023-04-11T19:30:29.637Z,100965.47
2023-04-11T19:32:58.711Z,100965.28
2023-04-11T19:35:26.194Z,100954.84
2023-04-11T19:37:53.923Z,100950.44
2023-04-11T19:40:23.246Z,100945.31
2023-04-11T19:42:51.219Z,100936.53
2023-04-11T19:45:18.855Z,100928.50
2023-04-11T19:47:46.520Z,100931.38
2023-04-11T19:50:13.982Z,100918.47
2023-04-11T19:52:41.818Z,100918.34
2023-04-11T19:55:10.401Z,100911.38
2023-04-11T19:57:38.761Z,100896.47
2023-04-11T20:00:12.142Z,100906.09
2023-04-11T20:02:41.268Z,100890.72
2023-04-11T20:05:09.119Z,100890.59
2023-04-11T20:07:36.535Z,100893.31
2023-04-11T20:10:04.335Z,100893.19
2023-04-11T20:12:31.731Z,100890.84
2023-04-11T20:14:59.122Z,100881.94
2023-04-11T20:17:26.621Z,100877.81
2023-04-11T20:19:55.499Z,100869.84
2023-04-11T20:22:23.270Z,100868.88
2023-04-11T20:24:50.876Z,100863.75
2023-04-11T20:27:18.640Z,100845.47
2023-04-11T20:29:46.079Z,100861.31
2023-04-11T20:32:13.498Z,100853.38
2023-04-11T20:34:40.986Z,100848.22
2023-04-11T20:37:09.011Z,100838.03
2023-04-11T20:39:36.453Z,100795.47
2023-04-11T20:42:04.220Z,100815.94
2023-04-11T20:44:34.110Z,100823.03
2023-04-11T20:47:01.512Z,100803.88
2023-04-11T20:49:31.800Z,100802.19
2023-04-11T20:52:00.043Z,100794.56
2023-04-11T20:54:27.653Z,100787.53
2023-04-11T20:56:55.782Z,100791.97
2023-04-11T20:59:23.225Z,100783.22
2023-04-11T21:01:50.763Z,100771.97
2023-04-11T21:04:18.696Z,100762.56
2023-04-11T21:06:46.462Z,100756.47
2023-04-11T21:09:14.026Z,100751.31
2023-04-11T21:11:41.411Z,100753.03
2023-04-11T21:14:08.809Z,100745.97
2023-04-11T21:16:36.220Z,100740.06
2023-04-11T21:19:03.599Z,100747.66
2023-04-11T21:21:31.082Z,100745.16
2023-04-11T21:23:58.885Z,100736.44
2023-04-11T21:26:27.129Z,100732.09
2023-04-11T21:28:54.498Z,100727.88
2023-04-11T21:31:21.897Z,100733.00
2023-04-11T21:33:49.414Z,100729.53
2023-04-11T21:36:16.909Z,100725.06
2023-04-11T21:38:44.402Z,100729.53
2023-04-11T21:41:11.765Z,100724.25
2023-04-11T21:43:39.211Z,100718.97
2023-04-11T21:46:06.813Z,100707.06
2023-04-11T21:48:34.185Z,100708.66
2023-04-11T21:51:03.347Z,100708.78
2023-04-11T21:53:30.827Z,100694.84
2023-04-11T21:55:58.294Z,100695.81
2023-04-11T21:58:29.647Z,100696.69
2023-04-11T22:00:57.622Z,100703.63
2023-04-11T22:03:26.556Z,100701.00
2023-04-11T22:05:54.308Z,100705.63
2023-04-11T22:08:22.805Z,100699.50
2023-04-11T22:10:50.916Z,100687.59
2023-04-11T22:13:19.354Z,100694.34
2023-04-11T22:15:48.759Z,100681.88
2023-04-11T22:18:16.219Z,100676.28
2023-04-11T22:20:44.527Z,100677.16
2023-04-11T22:23:13.074Z,100666.22
2023-04-11T22:25:44.250Z,100669.88
2023-04-11T22:28:15.587Z,100664.41
2023-04-11T22:30:44.095Z,100654.13
2023-04-11T22:33:13.770Z,100642.84
2023-04-11T22:35:43.916Z,100634.25
2023-04-11T22:38:11.631Z,100621.41
2023-04-11T22:40:40.351Z,100613.72
2023-04-11T22:43:07.818Z,100622.50
2023-04-11T22:45:35.939Z,100619.09
2023-04-11T22:48:04.632Z,100614.69
2023-04-11T22:50:37.258Z,100610.47
2023-04-11T22:53:04.766Z,100598.13
2023-04-11T22:55:34.427Z,100590.34
2023-04-11T22:58:05.006Z,100586.00
2023-04-11T23:00:38.131Z,100583.63
2023-04-11T23:03:07.332Z,100581.94
2023-04-11T23:05:35.331Z,100580.22
2023-04-11T23:08:02.730Z,100569.69
2023-04-11T23:10:30.144Z,100568.19
2023-04-11T23:12:57.617Z,100565.50
2023-04-11T23:15:25.033Z,100567.38
2023-04-11T23:17:52.469Z,100557.84
2023-04-11T23:20:22.165Z,100556.03
2023-04-11T23:22:49.607Z,100558.47
2023-04-11T23:25:16.989Z,100545.50
2023-04-11T23:27:45.084Z,100541.47
2023-04-11T23:30:12.987Z,100539.78
2023-04-11T23:32:41.427Z,100531.94
2023-04-11T23:35:09.119Z,100520.56
2023-04-11T23:37:36.494Z,100512.84
2023-04-11T23:40:10.490Z,100508.59
2023-04-11T23:42:38.572Z,100502.53
2023-04-11T23:45:07.184Z,100497.63
2023-04-11T23:47:35.230Z,100488.78
2023-04-11T23:50:03.663Z,100479.31
2023-04-11T23:52:31.432Z,100468.84
2023-04-11T23:54:58.942Z,100469.78
2023-04-11T23:57:26.398Z,100469.81
2023-04-11T23:59:53.841Z,100461.09
